Kezdőlap
METAR-TAF:

METAR-TAF

Repülőterek :

Nagybánya, Románia

földrajzi szélesség: 47-40N, földrajzi hosszúság: 023-35E, magasság: 218 m

Jelenlegi meteorológiai megfigyelések

A jelentés 30 perccel ezelõtt készült, 06:00 UTC
Hőmérséklet
Légköri nyomás 1016 hPa
Látótávolság 10 km, vagy több
Szakadozott felhőzet 3500 lábon

METAR: LRBM 230600Z KT 9999 BKN035 Q1016

Idő: 08:30 (06:30 UTC)

Előrejelzés

A jelentés 56 perccel ezelõtt készült, 05:34 UTC
Az előrejelzés 23-én 06 óra UTC és 23-én 15 óra UTC között érvényes
Keleti szél 5 kt
Látótávolság 10 km, vagy több
Szakadozott felhőzet 3500 lábon
23-én 13 óra UTC és 23-én 15 óra UTC között fokozatosan kialakuló
Látótávolság: 5000 m
Szakadozott felhőzet 1500 lábon
Borult 3000 lábon
enyhe esõ, hó, Párásság

TAF: LRBM 230534Z 2306/2315 10005KT 9999 BKN035 BECMG 2313/2315 5000 -RASN BR BKN015 OVC030

Meteorológiai megfigyelések és előrejelzések több, mint 4000 repülőtéren (METAR és TAF jelentéseket).

A térképen piros és sárga pontok jelzik az elérhető meteorológiai állomásokat.

Mozgassa az egeret a pont fölött, hogy megjelenjen az állomás neve.

Azután kattintson az időjárási megfigyelések és előrejelzések megtekintéséhez.

A térkép megváltoztatása: kattintson a fekete keresztel jelölt zöld gombra ráközelítéshez, a vonallal jelölt zöld gombra távolításhoz, vagy a zöld nyilakra a szomszédos térképek eléréséhez.


METAR-TAF: